Ontario, California
Current Conditions -  °F | °C
As of 4:53 PM on Wednesday 17 Dec 2014 (Local Time) from KONT Reporting Station
Overcast Overcast  
Wind Chill: 57°   Ceiling: 8000
Heat Index: 57°   Visibility: 10mi
Dew Point: 46°   Wind: 12mph
Humidity: 67%   Direction: 250°WSW
Pressure: 30.06"   Gusts: NA
Location:  34.06°N, 117.64°W
Report Text: KONT 180053Z 25010KT 10SM FEW040 BKN080 OVC200 14/08 A3006 RMK AO2 SLP179 VIRGA T01390078
Loading
Personal Weather Stations






























Interactive Weather Map New forecast layout! Learn more

10-Day Weather Forecast

Advertisements
Track Severe Weather on mobile